createdAt,value
2023-11-15T00:00:57.869Z,0
2023-11-15T00:03:57.477Z,0.3333333333333333
2023-11-15T00:06:57.797Z,0.3333333333333333
2023-11-15T00:09:57.529Z,1.3333333333333333
2023-11-15T00:12:57.660Z,2
2023-11-15T00:15:57.661Z,0
2023-11-15T00:18:57.125Z,2
2023-11-15T00:21:57.555Z,0.6666666666666666
2023-11-15T00:24:57.509Z,0
2023-11-15T00:27:57.358Z,1.6666666666666667
2023-11-15T00:30:57.559Z,0
2023-11-15T00:34:02.458Z,0.6666666666666666
2023-11-15T00:36:59.798Z,0.6666666666666666
2023-11-15T00:39:58.207Z,0.6666666666666666
2023-11-15T00:42:57.285Z,0.3333333333333333
2023-11-15T00:45:57.461Z,0
2023-11-15T00:48:57.236Z,0
2023-11-15T00:51:57.218Z,0.6666666666666666
2023-11-15T00:55:02.786Z,0
2023-11-15T00:57:57.128Z,0
2023-11-15T01:01:02.852Z,0
2023-11-15T01:03:57.857Z,1
2023-11-15T01:06:57.471Z,0.6666666666666666
2023-11-15T01:09:57.909Z,0
2023-11-15T01:12:56.826Z,0
2023-11-15T01:15:57.070Z,0
2023-11-15T01:18:57.567Z,0
2023-11-15T01:21:57.014Z,0
2023-11-15T01:24:57.102Z,0
2023-11-15T01:27:57.560Z,0
2023-11-15T01:30:58.022Z,0
2023-11-15T01:33:58.071Z,0
2023-11-15T01:36:57.298Z,0
2023-11-15T01:39:57.532Z,0.3333333333333333
2023-11-15T01:42:57.465Z,0
2023-11-15T01:45:57.840Z,0
2023-11-15T01:48:57.447Z,0
2023-11-15T01:51:57.381Z,0
2023-11-15T01:54:57.316Z,0
2023-11-15T01:57:57.229Z,0
2023-11-15T02:00:58.110Z,0
2023-11-15T02:03:57.352Z,0
2023-11-15T02:06:57.120Z,1.3333333333333333
2023-11-15T02:09:57.584Z,1.6666666666666667
2023-11-15T02:12:57.148Z,0
2023-11-15T02:15:57.315Z,0
2023-11-15T02:18:57.490Z,2
2023-11-15T02:21:56.821Z,0
2023-11-15T02:24:56.892Z,0
2023-11-15T02:27:57.017Z,1
2023-11-15T02:30:57.662Z,0.6666666666666666
2023-11-15T02:33:57.526Z,0
2023-11-15T02:36:57.175Z,0
2023-11-15T02:39:57.529Z,0.6666666666666666
2023-11-15T02:42:57.658Z,0.3333333333333333
2023-11-15T02:45:59.587Z,0
2023-11-15T02:48:57.470Z,0.6666666666666666
2023-11-15T02:51:56.750Z,0
2023-11-15T02:54:57.616Z,0
2023-11-15T02:57:57.434Z,0
2023-11-15T03:00:57.977Z,3
2023-11-15T03:03:57.493Z,0
2023-11-15T03:06:57.820Z,1
2023-11-15T03:09:56.830Z,0
2023-11-15T03:12:57.191Z,1
2023-11-15T03:15:57.093Z,0
2023-11-15T03:18:57.356Z,0
2023-11-15T03:21:57.003Z,0
2023-11-15T03:24:57.879Z,0.6666666666666666
2023-11-15T03:27:57.643Z,0.6666666666666666
2023-11-15T03:30:57.975Z,0.3333333333333333
2023-11-15T03:33:57.954Z,0.6666666666666666
2023-11-15T03:36:57.159Z,0.6666666666666666
2023-11-15T03:39:57.642Z,1
2023-11-15T03:42:57.639Z,0.3333333333333333
2023-11-15T03:45:57.769Z,0
2023-11-15T03:48:56.977Z,1.6666666666666667
2023-11-15T03:51:57.536Z,1
2023-11-15T03:54:57.239Z,0.3333333333333333
2023-11-15T03:57:56.989Z,0
2023-11-15T04:00:57.253Z,1.3333333333333333
2023-11-15T04:03:57.624Z,0
2023-11-15T04:06:57.324Z,1.3333333333333333
2023-11-15T04:09:57.923Z,0.6666666666666666
2023-11-15T04:12:57.567Z,0.3333333333333333
2023-11-15T04:15:57.073Z,1
2023-11-15T04:18:57.130Z,0
2023-11-15T04:22:08.601Z,0
2023-11-15T04:24:57.547Z,0.3333333333333333
2023-11-15T04:27:57.022Z,1.6666666666666667
2023-11-15T04:30:57.702Z,0.3333333333333333
2023-11-15T04:33:56.989Z,0
2023-11-15T04:36:57.414Z,0
2023-11-15T04:39:57.719Z,0
2023-11-15T04:42:57.458Z,1.3333333333333333
2023-11-15T04:45:57.782Z,0
2023-11-15T04:48:57.634Z,0
2023-11-15T04:51:58.088Z,1.6666666666666667
2023-11-15T04:54:57.149Z,0
2023-11-15T04:57:57.753Z,0
2023-11-15T05:00:57.656Z,1.3333333333333333
2023-11-15T05:03:58.427Z,0.3333333333333333
2023-11-15T05:06:57.416Z,2.6666666666666665
2023-11-15T05:09:57.607Z,0.6666666666666666
2023-11-15T05:12:57.346Z,0
2023-11-15T05:15:58.408Z,0
2023-11-15T05:18:56.845Z,0
2023-11-15T05:21:57.174Z,0
2023-11-15T05:24:58.078Z,0.3333333333333333
2023-11-15T05:27:57.688Z,0
2023-11-15T05:30:58.394Z,0.3333333333333333
2023-11-15T05:33:57.425Z,0.6666666666666666
2023-11-15T05:36:57.339Z,0
2023-11-15T05:39:57.599Z,0
2023-11-15T05:42:57.840Z,0
2023-11-15T05:45:58.164Z,0.6666666666666666
2023-11-15T05:48:57.719Z,1
2023-11-15T05:51:58.205Z,0
2023-11-15T05:54:58.937Z,0
2023-11-15T05:57:58.064Z,1
2023-11-15T06:00:58.922Z,0
2023-11-15T06:03:57.340Z,0
2023-11-15T06:06:58.038Z,0
2023-11-15T06:09:58.753Z,0.3333333333333333
2023-11-15T06:12:58.170Z,0.3333333333333333
2023-11-15T06:15:58.610Z,1.6666666666666667
2023-11-15T06:18:57.921Z,0.3333333333333333
2023-11-15T06:21:57.237Z,2.3333333333333335
2023-11-15T06:24:57.394Z,4.666666666666667
2023-11-15T06:27:57.346Z,3.3333333333333335
2023-11-15T06:30:58.853Z,6
2023-11-15T06:33:57.016Z,12.666666666666666
2023-11-15T06:36:57.322Z,15
2023-11-15T06:39:57.949Z,11
2023-11-15T06:42:57.300Z,24.666666666666668
2023-11-15T06:45:57.433Z,33
2023-11-15T06:48:58.115Z,31.333333333333332
2023-11-15T06:51:57.800Z,19.333333333333332
2023-11-15T06:54:56.907Z,24.333333333333332
2023-11-15T06:57:57.663Z,26.333333333333332
2023-11-15T07:00:57.962Z,25
2023-11-15T07:03:57.416Z,19
2023-11-15T07:06:57.857Z,20.666666666666668
2023-11-15T07:09:57.326Z,33.666666666666664
2023-11-15T07:12:57.709Z,68.33333333333333
2023-11-15T07:15:57.440Z,36.666666666666664
2023-11-15T07:18:57.450Z,66.33333333333333
2023-11-15T07:21:57.671Z,41
2023-11-15T07:24:57.613Z,80.66666666666667
2023-11-15T07:27:57.918Z,47
2023-11-15T07:30:57.370Z,59
2023-11-15T07:33:56.847Z,87.33333333333333
2023-11-15T07:36:57.507Z,100.33333333333333
2023-11-15T07:39:58.106Z,81.33333333333333
2023-11-15T07:42:57.376Z,141
2023-11-15T07:45:57.572Z,84.33333333333333
2023-11-15T07:48:57.641Z,173.66666666666666
2023-11-15T07:51:56.602Z,126.33333333333333
2023-11-15T07:54:59.934Z,121
2023-11-15T07:57:57.453Z,92
2023-11-15T08:00:57.948Z,149.33333333333334
2023-11-15T08:03:57.581Z,133
2023-11-15T08:06:57.537Z,152.33333333333334
2023-11-15T08:09:58.080Z,256
2023-11-15T08:12:57.470Z,411.6666666666667
2023-11-15T08:15:57.661Z,333.6666666666667
2023-11-15T08:18:57.815Z,270.6666666666667
2023-11-15T08:21:58.005Z,264
2023-11-15T08:24:57.557Z,228.66666666666666
2023-11-15T08:27:59.684Z,173
2023-11-15T08:30:57.083Z,174
2023-11-15T08:33:57.231Z,129.33333333333334
2023-11-15T08:36:57.613Z,230
2023-11-15T08:39:57.357Z,259.6666666666667
2023-11-15T08:42:57.672Z,307.6666666666667
2023-11-15T08:45:57.825Z,280.6666666666667
2023-11-15T08:48:56.655Z,296
2023-11-15T08:51:57.527Z,381
2023-11-15T08:54:56.954Z,129.66666666666666
2023-11-15T08:57:56.834Z,76.33333333333333
2023-11-15T09:00:58.687Z,93.66666666666667
2023-11-15T09:03:58.129Z,219
2023-11-15T09:06:56.746Z,522.3333333333334
2023-11-15T09:09:57.265Z,419.6666666666667
2023-11-15T09:12:57.144Z,753
2023-11-15T09:15:57.746Z,322.6666666666667
2023-11-15T09:18:57.536Z,276.6666666666667
2023-11-15T09:21:57.714Z,270
2023-11-15T09:25:04.041Z,220
2023-11-15T09:27:57.286Z,392
2023-11-15T09:30:57.982Z,358.3333333333333
2023-11-15T09:33:57.902Z,350
2023-11-15T09:36:56.806Z,288.3333333333333
2023-11-15T09:39:57.775Z,434.3333333333333
2023-11-15T09:42:57.597Z,359.6666666666667
2023-11-15T09:45:57.481Z,836
2023-11-15T09:49:02.962Z,426.3333333333333
2023-11-15T09:51:57.719Z,351.3333333333333
2023-11-15T09:54:57.391Z,411.3333333333333
2023-11-15T09:57:57.566Z,552.3333333333334
2023-11-15T10:00:58.435Z,670.6666666666666
2023-11-15T10:03:57.870Z,417.3333333333333
2023-11-15T10:07:03.970Z,595
2023-11-15T10:09:57.552Z,869.3333333333334
2023-11-15T10:12:57.649Z,534
2023-11-15T10:15:58.123Z,473.3333333333333
2023-11-15T10:18:57.052Z,591.6666666666666
2023-11-15T10:21:57.201Z,558
2023-11-15T10:24:58.095Z,732
2023-11-15T10:27:57.302Z,330.6666666666667
2023-11-15T10:30:57.899Z,449.6666666666667
2023-11-15T10:33:57.784Z,300
2023-11-15T10:36:58.638Z,502.6666666666667
2023-11-15T10:39:56.977Z,379.3333333333333
2023-11-15T10:42:57.162Z,375.6666666666667
2023-11-15T10:45:57.788Z,495
2023-11-15T10:48:57.593Z,603.6666666666666
2023-11-15T10:51:57.852Z,377
2023-11-15T10:54:57.804Z,199.33333333333334
2023-11-15T10:57:56.723Z,351.6666666666667
2023-11-15T11:00:58.406Z,394.6666666666667
2023-11-15T11:04:22.127Z,529.3333333333334
2023-11-15T11:06:57.147Z,237
2023-11-15T11:09:57.836Z,366.6666666666667
2023-11-15T11:12:57.152Z,767.6666666666666
2023-11-15T11:15:57.376Z,735
2023-11-15T11:18:58.046Z,728.6666666666666
2023-11-15T11:21:57.326Z,750.6666666666666
2023-11-15T11:24:57.962Z,570.3333333333334
2023-11-15T11:27:57.248Z,728
2023-11-15T11:30:57.827Z,564.3333333333334
2023-11-15T11:33:57.895Z,692.3333333333334
2023-11-15T11:36:57.667Z,593.6666666666666
2023-11-15T11:39:57.754Z,503.3333333333333
2023-11-15T11:42:57.221Z,448.3333333333333
2023-11-15T11:45:57.891Z,310.3333333333333
2023-11-15T11:48:57.557Z,283
2023-11-15T11:51:57.700Z,304
2023-11-15T11:54:57.868Z,233.66666666666666
2023-11-15T11:57:56.998Z,197
2023-11-15T12:00:57.987Z,277
2023-11-15T12:03:57.986Z,295.6666666666667
2023-11-15T12:06:56.850Z,285.6666666666667
2023-11-15T12:09:57.755Z,204.33333333333334
2023-11-15T12:12:57.371Z,177.33333333333334
2023-11-15T12:15:56.986Z,177
2023-11-15T12:18:57.742Z,145.66666666666666
2023-11-15T12:21:57.449Z,201.33333333333334
2023-11-15T12:24:57.825Z,242.33333333333334
2023-11-15T12:27:56.809Z,295
2023-11-15T12:30:57.519Z,283.3333333333333
2023-11-15T12:33:56.914Z,241.66666666666666
2023-11-15T12:36:56.821Z,270
2023-11-15T12:39:57.487Z,152
2023-11-15T12:42:57.266Z,229.66666666666666
2023-11-15T12:45:58.250Z,271.3333333333333
2023-11-15T12:48:57.018Z,268.3333333333333
2023-11-15T12:51:57.438Z,192.66666666666666
2023-11-15T12:54:57.107Z,155
2023-11-15T12:57:57.874Z,167.33333333333334
2023-11-15T13:00:58.332Z,415.6666666666667
2023-11-15T13:03:58.085Z,107
2023-11-15T13:06:57.299Z,84
2023-11-15T13:09:57.280Z,53.333333333333336
2023-11-15T13:12:58.709Z,88.33333333333333
2023-11-15T13:15:57.846Z,101.33333333333333
2023-11-15T13:18:57.415Z,106.66666666666667
2023-11-15T13:21:57.672Z,285.6666666666667
2023-11-15T13:24:57.949Z,270.6666666666667
2023-11-15T13:27:57.669Z,224
2023-11-15T13:30:57.952Z,201.33333333333334
2023-11-15T13:33:58.309Z,141
2023-11-15T13:36:57.676Z,139.33333333333334
2023-11-15T13:39:57.450Z,168
2023-11-15T13:42:57.760Z,124.33333333333333
2023-11-15T13:45:57.307Z,100.66666666666667
2023-11-15T13:48:57.218Z,73.66666666666667
2023-11-15T13:51:58.251Z,106.33333333333333
2023-11-15T13:54:57.390Z,198.66666666666666
2023-11-15T13:57:57.620Z,232.33333333333334
2023-11-15T14:00:57.503Z,162.33333333333334
2023-11-15T14:03:57.613Z,174.66666666666666
2023-11-15T14:06:57.307Z,163.66666666666666
2023-11-15T14:09:57.524Z,163.33333333333334
2023-11-15T14:12:57.905Z,188.33333333333334
2023-11-15T14:15:57.249Z,169.33333333333334
2023-11-15T14:18:58.050Z,165.33333333333334
2023-11-15T14:21:57.422Z,170.33333333333334
2023-11-15T14:24:57.698Z,210.33333333333334
2023-11-15T14:27:58.276Z,217
2023-11-15T14:30:57.534Z,223.66666666666666
2023-11-15T14:33:56.984Z,208
2023-11-15T14:36:56.825Z,166.66666666666666
2023-11-15T14:39:57.791Z,150.66666666666666
2023-11-15T14:42:56.783Z,130.66666666666666
2023-11-15T14:45:57.270Z,142.33333333333334
2023-11-15T14:48:58.166Z,124.66666666666667
2023-11-15T14:51:58.058Z,114
2023-11-15T14:54:57.491Z,106.33333333333333
2023-11-15T14:57:57.109Z,93.33333333333333
2023-11-15T15:00:58.289Z,75.33333333333333
2023-11-15T15:03:58.144Z,59.333333333333336
2023-11-15T15:06:57.418Z,54
2023-11-15T15:09:57.931Z,41.666666666666664
2023-11-15T15:12:56.847Z,50.333333333333336
2023-11-15T15:15:57.878Z,44.333333333333336
2023-11-15T15:18:56.857Z,41.333333333333336
2023-11-15T15:21:57.569Z,39.333333333333336
2023-11-15T15:24:57.155Z,32.666666666666664
2023-11-15T15:27:57.465Z,30.666666666666668
2023-11-15T15:30:57.632Z,31
2023-11-15T15:33:57.738Z,29.666666666666668
2023-11-15T15:36:58.197Z,30
2023-11-15T15:39:57.870Z,28.666666666666668
2023-11-15T15:42:57.347Z,25.333333333333332
2023-11-15T15:45:58.542Z,25
2023-11-15T15:48:57.756Z,25
2023-11-15T15:51:57.899Z,24.333333333333332
2023-11-15T15:54:56.945Z,22.333333333333332
2023-11-15T15:57:58.080Z,21.333333333333332
2023-11-15T16:00:58.066Z,10.333333333333334
2023-11-15T16:03:57.421Z,2.3333333333333335
2023-11-15T16:06:58.460Z,23
2023-11-15T16:09:57.556Z,23
2023-11-15T16:12:57.972Z,24
2023-11-15T16:15:57.569Z,0
2023-11-15T16:18:58.387Z,0
2023-11-15T16:21:57.469Z,0
2023-11-15T16:24:57.469Z,0
2023-11-15T16:27:58.065Z,0
2023-11-15T16:30:58.267Z,0
2023-11-15T16:33:58.287Z,0
2023-11-15T16:36:57.233Z,0
2023-11-15T16:39:58.515Z,2
2023-11-15T16:42:58.081Z,0
2023-11-15T16:45:57.824Z,0.3333333333333333
2023-11-15T16:48:58.378Z,0
2023-11-15T16:51:58.004Z,0
2023-11-15T16:54:57.877Z,0.3333333333333333
2023-11-15T16:57:57.766Z,0
2023-11-15T17:00:58.506Z,0
2023-11-15T17:03:58.380Z,1.3333333333333333
2023-11-15T17:06:58.364Z,0
2023-11-15T17:09:58.417Z,0
2023-11-15T17:12:57.640Z,0
2023-11-15T17:15:58.626Z,26.333333333333332
2023-11-15T17:18:57.467Z,24.333333333333332
2023-11-15T17:21:59.736Z,25
2023-11-15T17:24:57.558Z,23.333333333333332
2023-11-15T17:27:58.404Z,25
2023-11-15T17:30:57.858Z,23.333333333333332
2023-11-15T17:33:58.349Z,25
2023-11-15T17:36:58.291Z,24
2023-11-15T17:39:58.401Z,24.666666666666668
2023-11-15T17:43:00.948Z,24.666666666666668
2023-11-15T17:45:58.321Z,25.666666666666668
2023-11-15T17:48:57.690Z,24
2023-11-15T17:51:57.649Z,24.333333333333332
2023-11-15T17:54:57.990Z,24.333333333333332
2023-11-15T17:57:57.460Z,25
2023-11-15T18:00:58.697Z,24
2023-11-15T18:03:57.594Z,25.333333333333332
2023-11-15T18:06:58.097Z,23.333333333333332
2023-11-15T18:09:58.883Z,25
2023-11-15T18:12:58.150Z,23
2023-11-15T18:15:57.836Z,23.333333333333332
2023-11-15T18:18:57.563Z,24.666666666666668
2023-11-15T18:21:57.846Z,23
2023-11-15T18:24:57.312Z,4.333333333333333
2023-11-15T18:27:57.177Z,1
2023-11-15T18:30:57.889Z,0
2023-11-15T18:33:58.355Z,0.6666666666666666
2023-11-15T18:36:57.756Z,0
2023-11-15T18:39:57.448Z,0
2023-11-15T18:42:58.164Z,1
2023-11-15T18:45:57.651Z,0.3333333333333333
2023-11-15T18:48:57.097Z,0.3333333333333333
2023-11-15T18:51:57.578Z,1
2023-11-15T18:54:57.955Z,0.3333333333333333
2023-11-15T18:57:57.106Z,0
2023-11-15T19:01:25.846Z,0.3333333333333333
2023-11-15T19:03:57.293Z,0
2023-11-15T19:06:57.348Z,0
2023-11-15T19:09:58.155Z,1.3333333333333333
2023-11-15T19:12:57.264Z,0.6666666666666666
2023-11-15T19:15:57.547Z,0
2023-11-15T19:18:57.609Z,1.3333333333333333
2023-11-15T19:21:57.742Z,0
2023-11-15T19:24:58.042Z,0.3333333333333333
2023-11-15T19:27:58.023Z,0
2023-11-15T19:30:57.525Z,0.3333333333333333
2023-11-15T19:33:57.322Z,1.3333333333333333
2023-11-15T19:36:57.658Z,1
2023-11-15T19:39:57.422Z,0
2023-11-15T19:42:57.706Z,0
2023-11-15T19:45:58.280Z,0
2023-11-15T19:48:57.507Z,3
2023-11-15T19:51:57.758Z,0
2023-11-15T19:54:57.477Z,0.3333333333333333
2023-11-15T19:57:58.032Z,1.6666666666666667
2023-11-15T20:00:57.312Z,0
2023-11-15T20:03:57.440Z,1
2023-11-15T20:06:58.277Z,1.3333333333333333
2023-11-15T20:09:58.310Z,2.3333333333333335
2023-11-15T20:12:57.363Z,0
2023-11-15T20:15:58.116Z,0
2023-11-15T20:18:57.706Z,0.3333333333333333
2023-11-15T20:21:57.790Z,0
2023-11-15T20:24:58.033Z,0
2023-11-15T20:27:56.993Z,0
2023-11-15T20:30:57.810Z,0
2023-11-15T20:33:57.383Z,0
2023-11-15T20:36:56.877Z,0
2023-11-15T20:39:57.633Z,0
2023-11-15T20:42:57.643Z,0
2023-11-15T20:46:10.260Z,0
2023-11-15T20:48:57.494Z,0
2023-11-15T20:51:57.648Z,0
2023-11-15T20:54:57.156Z,0
2023-11-15T20:57:57.312Z,0
2023-11-15T21:00:58.353Z,0.3333333333333333
2023-11-15T21:03:57.104Z,0
2023-11-15T21:06:57.411Z,0
2023-11-15T21:09:58.255Z,0
2023-11-15T21:12:58.021Z,0
2023-11-15T21:15:57.713Z,0.3333333333333333
2023-11-15T21:18:57.363Z,0
2023-11-15T21:21:57.906Z,0.3333333333333333
2023-11-15T21:24:57.191Z,0
2023-11-15T21:27:57.126Z,0.3333333333333333
2023-11-15T21:30:57.621Z,0
2023-11-15T21:33:57.620Z,0
2023-11-15T21:37:03.234Z,0
2023-11-15T21:39:58.000Z,0
2023-11-15T21:42:57.880Z,0
2023-11-15T21:45:57.494Z,0
2023-11-15T21:48:57.643Z,0
2023-11-15T21:51:57.792Z,0.3333333333333333
2023-11-15T21:54:57.460Z,0.6666666666666666
2023-11-15T21:57:57.773Z,0.3333333333333333
2023-11-15T22:00:58.104Z,0
2023-11-15T22:03:58.127Z,0
2023-11-15T22:07:02.471Z,0
2023-11-15T22:09:57.971Z,0
2023-11-15T22:12:57.658Z,0
2023-11-15T22:15:57.688Z,0
2023-11-15T22:18:56.966Z,0
2023-11-15T22:21:57.341Z,0.6666666666666666
2023-11-15T22:24:57.458Z,0
2023-11-15T22:27:57.813Z,0
2023-11-15T22:30:57.823Z,0
2023-11-15T22:33:58.366Z,0
2023-11-15T22:36:57.260Z,0
2023-11-15T22:39:58.372Z,0
2023-11-15T22:42:57.863Z,0.3333333333333333
2023-11-15T22:45:57.733Z,0.6666666666666666
2023-11-15T22:48:57.214Z,0
2023-11-15T22:51:57.696Z,0
2023-11-15T22:54:57.353Z,0
2023-11-15T22:57:57.679Z,0
2023-11-15T23:00:58.684Z,0
2023-11-15T23:03:57.600Z,0
2023-11-15T23:06:58.344Z,0
2023-11-15T23:09:57.944Z,0
2023-11-15T23:12:57.756Z,0.3333333333333333
2023-11-15T23:15:57.517Z,0
2023-11-15T23:18:57.528Z,0
2023-11-15T23:22:03.161Z,0
2023-11-15T23:24:57.460Z,0.3333333333333333
2023-11-15T23:27:57.434Z,0
2023-11-15T23:30:57.409Z,0
2023-11-15T23:33:57.399Z,0
2023-11-15T23:36:57.372Z,0.3333333333333333
2023-11-15T23:39:57.605Z,0
2023-11-15T23:42:57.341Z,0.3333333333333333
2023-11-15T23:45:57.162Z,0
2023-11-15T23:48:57.433Z,0
2023-11-15T23:51:57.472Z,0
2023-11-15T23:54:57.876Z,0
2023-11-15T23:57:56.890Z,0
